createdAt,value
2023-04-08T00:01:22.196Z,83.2
2023-04-08T00:06:28.533Z,83.1
2023-04-08T00:11:38.921Z,83.0
2023-04-08T00:16:31.350Z,82.9
2023-04-08T00:21:46.926Z,82.7
2023-04-08T00:28:06.488Z,82.5
2023-04-08T00:32:28.821Z,82.5
2023-04-08T00:37:47.170Z,82.3
2023-04-08T00:42:13.558Z,82.3
2023-04-08T00:47:48.015Z,82.3
2023-04-08T00:52:26.305Z,82.2
2023-04-08T00:57:32.675Z,82.2
2023-04-08T01:02:39.207Z,82.2
2023-04-08T01:07:45.483Z,82.6
2023-04-08T01:12:41.819Z,82.1
2023-04-08T01:17:58.259Z,82.1
2023-04-08T01:23:04.662Z,82.0
2023-04-08T01:33:17.521Z,82.0
2023-04-08T01:38:23.911Z,81.9
2023-04-08T01:43:50.313Z,81.8
2023-04-08T01:53:33.051Z,81.6
2023-04-08T01:58:49.589Z,81.6
2023-04-08T02:03:59.856Z,81.7
2023-04-08T02:09:06.204Z,81.6
2023-04-08T02:14:22.667Z,81.7
2023-04-08T02:19:16.212Z,81.4
2023-04-08T02:34:49.378Z,81.4
2023-04-08T02:39:41.821Z,81.3
2023-04-08T02:44:49.348Z,81.1
2023-04-08T02:49:55.953Z,81.0
2023-04-08T03:00:13.281Z,80.9
2023-04-08T03:05:15.659Z,80.8
2023-04-08T03:10:36.067Z,80.7
2023-04-08T03:20:58.873Z,80.6
2023-04-08T03:26:05.245Z,80.5
2023-04-08T03:31:11.705Z,80.5
2023-04-08T03:35:54.118Z,80.5
2023-04-08T03:41:00.412Z,80.8
2023-04-08T03:46:10.923Z,81.9
2023-04-08T03:51:03.275Z,82.5
2023-04-08T03:56:23.710Z,81.7
2023-04-08T04:07:06.506Z,82.3
2023-04-08T04:11:38.836Z,82.3
2023-04-08T04:21:51.593Z,82.0
2023-04-08T04:26:58.076Z,82.0
2023-04-08T04:32:08.474Z,82.0
2023-04-08T04:37:00.842Z,82.0
2023-04-08T04:42:21.251Z,82.1
2023-04-08T04:47:23.675Z,82.0
2023-04-08T04:52:38.034Z,82.2
2023-04-08T04:57:36.384Z,82.3
2023-04-08T05:02:42.922Z,82.4
2023-04-08T05:12:55.641Z,82.2
2023-04-08T05:18:02.073Z,82.3
2023-04-08T05:23:08.468Z,82.2
2023-04-08T05:28:34.864Z,82.1
2023-04-08T05:33:21.603Z,82.1
2023-04-08T05:38:28.123Z,82.2
2023-04-08T05:43:34.484Z,82.5
2023-04-08T05:48:30.844Z,82.9
2023-04-08T05:53:47.268Z,83.5
2023-04-08T06:00:09.777Z,83.7
2023-04-08T06:04:00.165Z,84.1
2023-04-08T06:09:06.653Z,84.2
2023-04-08T06:14:02.977Z,84.4
2023-04-08T06:19:19.499Z,84.6
2023-04-08T06:24:25.772Z,84.4
2023-04-08T06:29:41.157Z,85.1
2023-04-08T06:34:42.110Z,85.5
2023-04-08T06:39:48.717Z,85.8
2023-04-08T06:44:55.076Z,86.3
2023-04-08T06:49:51.577Z,86.2
2023-04-08T06:55:07.975Z,87.1
2023-04-08T07:00:14.346Z,87.7
2023-04-08T07:05:44.784Z,87.3
2023-04-08T07:10:17.354Z,87.2
2023-04-08T07:15:33.483Z,87.4
2023-04-08T07:20:40.106Z,87.2
2023-04-08T07:25:46.606Z,87.2
2023-04-08T07:30:42.974Z,87.3
2023-04-08T07:35:59.434Z,89.0
2023-04-08T07:40:55.781Z,88.1
2023-04-08T07:46:12.229Z,86.9
2023-04-08T07:51:20.438Z,85.3
2023-04-08T07:56:24.926Z,84.6
2023-04-08T08:01:21.298Z,84.5
2023-04-08T08:06:37.654Z,84.9
2023-04-08T08:11:34.155Z,85.5
2023-04-08T08:21:58.884Z,86.8
2023-04-08T08:26:56.281Z,87.4
2023-04-08T08:32:12.660Z,88.7
2023-04-08T08:37:19.024Z,92.7
2023-04-08T08:42:25.415Z,93.0
2023-04-08T08:47:21.756Z,93.3
2023-04-08T08:52:39.330Z,92.7
2023-04-08T08:57:35.809Z,92.8
2023-04-08T09:02:52.379Z,92.4
2023-04-08T09:07:58.577Z,93.1
2023-04-08T09:13:49.472Z,92.1
2023-04-08T09:18:31.355Z,92.0
2023-04-08T09:23:17.679Z,91.5
2023-04-08T09:28:24.123Z,91.4
2023-04-08T09:33:30.534Z,91.5
2023-04-08T09:39:13.010Z,90.7
2023-04-08T09:44:20.364Z,90.5
2023-04-08T09:51:33.733Z,91.1
2023-04-08T09:55:38.949Z,90.2
2023-04-08T10:00:21.337Z,90.0
2023-04-08T10:05:29.275Z,89.6
2023-04-08T10:10:39.295Z,90.3
2023-04-08T10:21:13.690Z,90.1
2023-04-08T10:26:00.091Z,90.3
2023-04-08T10:31:06.398Z,88.7
2023-04-08T10:41:39.245Z,89.0
2023-04-08T10:47:19.876Z,88.9
2023-04-08T10:51:22.136Z,88.5
2023-04-08T11:01:46.613Z,89.4
2023-04-08T11:06:42.841Z,88.8
2023-04-08T11:17:06.773Z,88.8
2023-04-08T11:22:13.248Z,89.0
2023-04-08T11:27:09.589Z,89.8
2023-04-08T11:33:46.115Z,90.0
2023-04-08T11:42:38.751Z,90.0
2023-04-08T11:47:45.688Z,89.6
2023-04-08T11:52:52.290Z,89.5
2023-04-08T11:57:58.639Z,89.2
2023-04-08T12:03:05.147Z,89.1
2023-04-08T12:13:18.001Z,89.1
2023-04-08T12:19:02.418Z,88.8
2023-04-08T12:23:30.768Z,88.7
2023-04-08T12:28:51.165Z,88.6
2023-04-08T12:34:23.669Z,88.7
2023-04-08T12:39:34.178Z,89.1
2023-04-08T12:44:50.583Z,89.1
2023-04-08T12:49:04.714Z,89.2
2023-04-08T12:54:53.455Z,89.0
2023-04-08T12:59:17.319Z,89.2
2023-04-08T13:05:02.755Z,88.9
2023-04-08T13:14:27.633Z,89.0
2023-04-08T13:20:47.119Z,89.4
2023-04-08T13:24:49.390Z,89.1
2023-04-08T13:30:16.828Z,89.2
2023-04-08T13:35:23.183Z,89.3
2023-04-08T13:45:16.185Z,89.8
2023-04-08T13:50:22.581Z,89.9
2023-04-08T13:56:13.008Z,90.0
2023-04-08T14:00:49.334Z,89.7
2023-04-08T14:05:41.947Z,89.7
2023-04-08T14:10:48.315Z,89.6
2023-04-08T14:15:53.772Z,89.9
2023-04-08T14:21:25.189Z,89.3
2023-04-08T14:26:21.585Z,90.0
2023-04-08T14:31:13.924Z,90.1
2023-04-08T14:36:44.379Z,90.2
2023-04-08T14:41:26.777Z,90.2
2023-04-08T14:46:53.234Z,90.3
2023-04-08T14:51:59.611Z,90.3
2023-04-08T15:12:05.212Z,90.3
2023-04-08T15:22:17.974Z,90.5
2023-04-08T15:34:37.644Z,90.5
2023-04-08T15:39:34.995Z,90.1
2023-04-08T15:50:02.070Z,90.2
2023-04-08T15:55:04.425Z,90.4
2023-04-08T16:00:30.917Z,90.3
2023-04-08T16:05:17.272Z,90.4
2023-04-08T16:11:07.964Z,90.2
2023-04-08T16:15:30.223Z,90.2
2023-04-08T16:20:36.655Z,90.3
2023-04-08T16:25:42.979Z,90.2
2023-04-08T16:30:39.352Z,90.3
2023-04-08T16:35:45.813Z,90.3
2023-04-08T16:40:52.123Z,90.3
2023-04-08T16:46:08.547Z,90.3
2023-04-08T16:51:04.904Z,90.2
2023-04-08T16:56:11.388Z,90.2
2023-04-08T17:01:41.867Z,90.1
2023-04-08T17:06:34.332Z,90.2
2023-04-08T17:12:04.718Z,90.1
2023-04-08T17:16:47.149Z,90.3
2023-04-08T17:21:43.460Z,90.1
2023-04-08T17:26:59.897Z,90.3
2023-04-08T17:31:56.445Z,90.4
2023-04-08T17:37:13.039Z,90.4
2023-04-08T17:42:19.400Z,90.3
2023-04-08T17:52:32.296Z,90.4
2023-04-08T17:57:38.712Z,90.2
2023-04-08T18:02:45.863Z,90.3
2023-04-08T18:08:15.568Z,90.2
2023-04-08T18:13:17.953Z,90.3
2023-04-08T18:18:28.348Z,90.3
2023-04-08T18:23:30.758Z,90.4
2023-04-08T18:28:17.051Z,90.4
2023-04-08T18:33:13.550Z,90.5
2023-04-08T18:43:36.376Z,90.4
2023-04-08T18:48:42.742Z,90.3
2023-04-08T18:53:49.226Z,90.3
2023-04-08T19:04:02.028Z,90.5
2023-04-08T19:09:28.342Z,90.5
2023-04-08T19:14:14.683Z,90.4
2023-04-08T19:19:24.644Z,90.4
2023-04-08T19:25:15.085Z,90.5
2023-04-08T19:30:01.442Z,90.5
2023-04-08T19:39:50.142Z,90.5
2023-04-08T19:45:20.570Z,90.9
2023-04-08T19:49:52.895Z,91.0
2023-04-08T19:55:29.465Z,90.7
2023-04-08T20:00:59.963Z,91.1
2023-04-08T20:05:22.257Z,90.9
2023-04-08T20:10:18.636Z,90.9
2023-04-08T20:15:35.078Z,90.8
2023-04-08T20:20:41.420Z,90.9
2023-04-08T20:25:47.904Z,90.8
2023-04-08T20:31:18.396Z,90.8
2023-04-08T20:36:00.712Z,90.7
2023-04-08T20:41:07.643Z,90.8
2023-04-08T20:46:14.151Z,90.9
2023-04-08T20:51:34.640Z,91.3
2023-04-08T20:56:16.960Z,91.4
2023-04-08T21:01:33.402Z,91.4
2023-04-08T21:07:23.858Z,91.3
2023-04-08T21:17:12.543Z,91.4
2023-04-08T21:22:19.066Z,91.5
2023-04-08T21:27:20.657Z,91.5
2023-04-08T21:32:33.258Z,91.6
2023-04-08T21:37:43.626Z,91.4
2023-04-08T21:47:32.406Z,91.5
2023-04-08T22:02:51.792Z,91.8
2023-04-08T22:07:58.287Z,91.7
2023-04-08T22:13:04.678Z,91.8
2023-04-08T22:24:59.653Z,91.8
2023-04-08T22:28:23.822Z,91.7
2023-04-08T22:33:30.343Z,91.9
2023-04-08T22:38:36.725Z,91.8
2023-04-08T22:44:03.148Z,91.6
2023-04-08T22:49:13.603Z,91.6
2023-04-08T22:53:56.521Z,91.8
2023-04-08T22:59:02.959Z,91.7
2023-04-08T23:04:09.326Z,91.7
2023-04-08T23:09:05.672Z,91.7
2023-04-08T23:14:46.105Z,91.6
2023-04-08T23:19:28.447Z,91.6
2023-04-08T23:24:34.844Z,91.8
2023-04-08T23:30:01.308Z,91.8
2023-04-08T23:35:15.852Z,91.7
2023-04-08T23:39:54.284Z,91.8
2023-04-08T23:45:00.570Z,91.6
2023-04-08T23:50:35.028Z,91.6
2023-04-08T23:55:13.380Z,91.7
